Flugplatz Hahnweide

EDST · 巴登-符腾堡, 德国

罗盘
风向 的 Flugplatz Hahnweide 13L/31R
风: 2 kt, 1 beaufort

1 kt

2 kt
改变
0 ft 1.000 2.000 3.000 4.000 5.000
Cloud Cloud Cloud Cloud Cloud Cloud
BKN 2.900
Cloud Cloud Cloud Cloud Cloud Cloud
BKN 3.400
METAR EDDS 051450Z AUTO VRB02KT 9999 BKN029 BKN034 08/05 Q1014 NOSIG

METAR Flugplatz Hahnweide - EDST

Flugplatz Hahnweide是,德国中的小机场。 该机场位于纬度48,63151和经度9,42868。 该机场有3条跑道: 13L/31R, 13R/31L 和 7/25. 本场的ICAO机场代码为EDST。 机场在Langen FIR中。

该航空气象观测是针对Stuttgart Airport在2024年3月5日 15:50, 当地时间进行的。

机场观察

可变方向的风很小或没有风。

可见度为10 km 或者更多。

有碎云在2.900 ft的高度 和 碎云在3.400 ft的高度。 破损或更高的上限为2.900 ft。

温度为8 °C,阵风为7 °C。 露点为5 °C,相对湿度为82%。 海平面上的气压为1014 hPa (QNH)。

白天

今天,太阳从06:54升起,在18:12降落。 这适用于Flugplatz Hahnweide,世界夏令时可能有所不同。 当地时间与世界标准时间之间的时差为+1 小时。 当前,没有夏令时有效。

公司介绍

我们没有关于这个机场的公司信息。

体会

到Vliegles.nl去找飞行课程,跳伞和其他飞行体验。 浏览页面,了解Flugplatz Hahnweide附近所有可用的活动。 你也可以使用搜索功能来寻找你所在地附近的特定飞行课程、跳伞或其他飞行体验。

跑道

Id 标题 侧风 逆风 侧风 %
13L/31R 127°-307° 2 kt 1 kt 80 %
13R/31L 126°-306° 2 kt 1 kt 81 %
7/25 068°-248° 2 kt 93 %

逆风成分最大的方向会被突出显示,并用于横风计算。 这并不一定意味着这个方向在使用。

乌云

2.900 ft BKN 碎云
3.400 ft BKN 碎云

温度 & 天气

温度 8 °C
露点 5 °C
相对湿度 82%
风寒 7 °C
Kp-index 0 (0-9)

白天

日出
06:55
中午
12:34
日落
18:13 (2:04)

小工具

你想在你的网站上有一个关于Flugplatz Hahnweide的当前航空天气(METAR)的小部件吗?

显示HTML代码
?>